sensor_id;sensor_type;location;lat;lon;timestamp;temperature;humidity
29185;DHT22;16233;47.964;-3.842;2022-09-29T00:01:45;9.40;99.90
29185;DHT22;16233;47.964;-3.842;2022-09-29T00:03:46;9.40;99.90
29185;DHT22;16233;47.964;-3.842;2022-09-29T00:05:48;9.50;99.90
29185;DHT22;16233;47.964;-3.842;2022-09-29T00:07:50;9.50;99.90
29185;DHT22;16233;47.964;-3.842;2022-09-29T00:09:51;9.50;99.90
29185;DHT22;16233;47.964;-3.842;2022-09-29T00:11:53;9.50;99.90
29185;DHT22;16233;47.964;-3.842;2022-09-29T00:13:54;9.60;99.90
29185;DHT22;16233;47.964;-3.842;2022-09-29T00:15:58;9.60;99.90
29185;DHT22;16233;47.964;-3.842;2022-09-29T00:17:59;9.60;99.90
29185;DHT22;16233;47.964;-3.842;2022-09-29T00:20:00;9.60;99.90
29185;DHT22;16233;47.964;-3.842;2022-09-29T00:22:01;9.60;99.90
29185;DHT22;16233;47.964;-3.842;2022-09-29T00:24:03;9.60;99.90
29185;DHT22;16233;47.964;-3.842;2022-09-29T00:26:06;9.60;99.90
29185;DHT22;16233;47.964;-3.842;2022-09-29T00:28:08;9.50;99.90
29185;DHT22;16233;47.964;-3.842;2022-09-29T00:30:09;9.50;99.90
29185;DHT22;16233;47.964;-3.842;2022-09-29T00:32:12;9.50;99.90
29185;DHT22;16233;47.964;-3.842;2022-09-29T00:34:13;9.50;99.90
29185;DHT22;16233;47.964;-3.842;2022-09-29T00:36:16;9.50;99.90
29185;DHT22;16233;47.964;-3.842;2022-09-29T00:38:17;9.50;99.90
29185;DHT22;16233;47.964;-3.842;2022-09-29T00:40:18;9.50;99.90
29185;DHT22;16233;47.964;-3.842;2022-09-29T00:42:19;9.50;99.90
29185;DHT22;16233;47.964;-3.842;2022-09-29T00:47:05;9.50;99.90
29185;DHT22;16233;47.964;-3.842;2022-09-29T00:49:12;9.60;99.90
29185;DHT22;16233;47.964;-3.842;2022-09-29T00:51:15;9.50;99.90
29185;DHT22;16233;47.964;-3.842;2022-09-29T00:53:18;9.50;99.90
29185;DHT22;16233;47.964;-3.842;2022-09-29T00:55:23;9.50;99.90
29185;DHT22;16233;47.964;-3.842;2022-09-29T00:57:28;9.50;99.90
29185;DHT22;16233;47.964;-3.842;2022-09-29T00:59:32;9.60;99.90
29185;DHT22;16233;47.964;-3.842;2022-09-29T01:01:35;9.50;99.90
29185;DHT22;16233;47.964;-3.842;2022-09-29T01:03:39;9.50;99.90
29185;DHT22;16233;47.964;-3.842;2022-09-29T01:05:46;9.50;99.90
29185;DHT22;16233;47.964;-3.842;2022-09-29T01:07:50;9.50;99.90
29185;DHT22;16233;47.964;-3.842;2022-09-29T01:09:53;9.50;99.90
29185;DHT22;16233;47.964;-3.842;2022-09-29T01:11:55;9.50;99.90
29185;DHT22;16233;47.964;-3.842;2022-09-29T01:13:58;9.40;99.90
29185;DHT22;16233;47.964;-3.842;2022-09-29T01:16:00;9.40;99.90
29185;DHT22;16233;47.964;-3.842;2022-09-29T01:18:01;9.40;99.90
29185;DHT22;16233;47.964;-3.842;2022-09-29T01:20:09;9.40;99.90
29185;DHT22;16233;47.964;-3.842;2022-09-29T01:22:23;9.40;99.90
29185;DHT22;16233;47.964;-3.842;2022-09-29T01:25:05;9.40;99.90
29185;DHT22;16233;47.964;-3.842;2022-09-29T01:27:28;9.40;99.90
29185;DHT22;16233;47.964;-3.842;2022-09-29T01:32:15;9.30;99.90
29185;DHT22;16233;47.964;-3.842;2022-09-29T01:34:24;9.20;99.90
29185;DHT22;16233;47.964;-3.842;2022-09-29T01:36:34;9.20;99.90
29185;DHT22;16233;47.964;-3.842;2022-09-29T01:38:49;9.10;99.90
29185;DHT22;16233;47.964;-3.842;2022-09-29T01:40:57;9.10;99.90
29185;DHT22;16233;47.964;-3.842;2022-09-29T01:43:06;9.00;99.90
29185;DHT22;16233;47.964;-3.842;2022-09-29T01:45:12;8.90;99.90
29185;DHT22;16233;47.964;-3.842;2022-09-29T01:47:19;8.90;99.90
29185;DHT22;16233;47.964;-3.842;2022-09-29T01:49:25;8.90;99.90
29185;DHT22;16233;47.964;-3.842;2022-09-29T01:51:31;8.80;99.90
29185;DHT22;16233;47.964;-3.842;2022-09-29T01:53:37;8.80;99.90
29185;DHT22;16233;47.964;-3.842;2022-09-29T01:55:44;8.70;99.90
29185;DHT22;16233;47.964;-3.842;2022-09-29T01:57:48;8.70;99.90
29185;DHT22;16233;47.964;-3.842;2022-09-29T01:59:54;8.60;99.90
29185;DHT22;16233;47.964;-3.842;2022-09-29T02:01:59;8.60;99.90
29185;DHT22;16233;47.964;-3.842;2022-09-29T02:04:05;8.50;99.90
29185;DHT22;16233;47.964;-3.842;2022-09-29T02:06:09;8.50;99.90
29185;DHT22;16233;47.964;-3.842;2022-09-29T02:08:15;8.40;99.90
29185;DHT22;16233;47.964;-3.842;2022-09-29T02:10:23;8.40;99.90
29185;DHT22;16233;47.964;-3.842;2022-09-29T02:12:27;8.40;99.90
29185;DHT22;16233;47.964;-3.842;2022-09-29T02:14:35;8.30;99.90
29185;DHT22;16233;47.964;-3.842;2022-09-29T02:16:44;8.30;99.90
29185;DHT22;16233;47.964;-3.842;2022-09-29T02:18:51;8.30;99.90
29185;DHT22;16233;47.964;-3.842;2022-09-29T02:20:54;8.30;99.90
29185;DHT22;16233;47.964;-3.842;2022-09-29T02:22:56;8.30;99.90
29185;DHT22;16233;47.964;-3.842;2022-09-29T02:24:58;8.30;99.90
29185;DHT22;16233;47.964;-3.842;2022-09-29T02:26:59;8.20;99.90
29185;DHT22;16233;47.964;-3.842;2022-09-29T02:29:01;8.20;99.90
29185;DHT22;16233;47.964;-3.842;2022-09-29T02:31:03;8.20;99.90
29185;DHT22;16233;47.964;-3.842;2022-09-29T02:33:04;8.20;99.90
29185;DHT22;16233;47.964;-3.842;2022-09-29T02:35:07;8.20;99.90
29185;DHT22;16233;47.964;-3.842;2022-09-29T02:37:29;8.10;99.90
29185;DHT22;16233;47.964;-3.842;2022-09-29T02:39:41;8.10;99.90
29185;DHT22;16233;47.964;-3.842;2022-09-29T02:41:49;8.10;99.90
29185;DHT22;16233;47.964;-3.842;2022-09-29T02:44:11;8.10;99.90
29185;DHT22;16233;47.964;-3.842;2022-09-29T02:46:26;8.10;99.90
29185;DHT22;16233;47.964;-3.842;2022-09-29T02:48:52;8.00;99.90
29185;DHT22;16233;47.964;-3.842;2022-09-29T02:51:04;8.00;99.90
29185;DHT22;16233;47.964;-3.842;2022-09-29T02:53:21;7.90;99.90
29185;DHT22;16233;47.964;-3.842;2022-09-29T02:55:32;7.90;99.90
29185;DHT22;16233;47.964;-3.842;2022-09-29T02:57:37;7.80;99.90
29185;DHT22;16233;47.964;-3.842;2022-09-29T02:59:46;7.80;99.90
29185;DHT22;16233;47.964;-3.842;2022-09-29T03:01:51;7.70;99.90
29185;DHT22;16233;47.964;-3.842;2022-09-29T03:03:53;7.70;99.90
29185;DHT22;16233;47.964;-3.842;2022-09-29T03:05:53;7.70;99.90
29185;DHT22;16233;47.964;-3.842;2022-09-29T03:07:54;7.70;99.90
29185;DHT22;16233;47.964;-3.842;2022-09-29T03:09:57;7.70;99.90
29185;DHT22;16233;47.964;-3.842;2022-09-29T03:11:58;7.60;99.90
29185;DHT22;16233;47.964;-3.842;2022-09-29T03:13:59;7.60;99.90
29185;DHT22;16233;47.964;-3.842;2022-09-29T03:16:00;7.60;99.90
29185;DHT22;16233;47.964;-3.842;2022-09-29T03:18:01;7.70;99.90
29185;DHT22;16233;47.964;-3.842;2022-09-29T03:20:03;7.70;99.90
29185;DHT22;16233;47.964;-3.842;2022-09-29T03:22:04;7.70;99.90
29185;DHT22;16233;47.964;-3.842;2022-09-29T03:24:06;7.70;99.90
29185;DHT22;16233;47.964;-3.842;2022-09-29T03:26:08;7.80;99.90
29185;DHT22;16233;47.964;-3.842;2022-09-29T03:28:09;7.80;99.90
29185;DHT22;16233;47.964;-3.842;2022-09-29T03:30:11;7.90;99.90
29185;DHT22;16233;47.964;-3.842;2022-09-29T03:32:12;7.90;99.90
29185;DHT22;16233;47.964;-3.842;2022-09-29T03:34:14;7.90;99.90
29185;DHT22;16233;47.964;-3.842;2022-09-29T03:36:15;7.90;99.90
29185;DHT22;16233;47.964;-3.842;2022-09-29T03:38:16;7.90;99.90
29185;DHT22;16233;47.964;-3.842;2022-09-29T03:40:17;8.00;99.90
29185;DHT22;16233;47.964;-3.842;2022-09-29T03:42:19;8.00;99.90
29185;DHT22;16233;47.964;-3.842;2022-09-29T03:44:21;8.00;99.90
29185;DHT22;16233;47.964;-3.842;2022-09-29T03:46:22;8.00;99.90
29185;DHT22;16233;47.964;-3.842;2022-09-29T03:48:23;7.90;99.90
29185;DHT22;16233;47.964;-3.842;2022-09-29T03:50:24;7.90;99.90
29185;DHT22;16233;47.964;-3.842;2022-09-29T03:52:25;7.90;99.90
29185;DHT22;16233;47.964;-3.842;2022-09-29T03:54:26;7.80;99.90
29185;DHT22;16233;47.964;-3.842;2022-09-29T03:56:27;7.80;99.90
29185;DHT22;16233;47.964;-3.842;2022-09-29T03:58:30;7.80;99.90
29185;DHT22;16233;47.964;-3.842;2022-09-29T04:00:31;7.80;99.90
29185;DHT22;16233;47.964;-3.842;2022-09-29T04:02:32;7.80;99.90
29185;DHT22;16233;47.964;-3.842;2022-09-29T04:04:33;7.70;99.90
29185;DHT22;16233;47.964;-3.842;2022-09-29T04:06:34;7.70;99.90
29185;DHT22;16233;47.964;-3.842;2022-09-29T04:08:35;7.70;99.90
29185;DHT22;16233;47.964;-3.842;2022-09-29T04:10:36;7.70;99.90
29185;DHT22;16233;47.964;-3.842;2022-09-29T04:12:38;7.60;99.90
29185;DHT22;16233;47.964;-3.842;2022-09-29T04:14:40;7.60;99.90
29185;DHT22;16233;47.964;-3.842;2022-09-29T04:16:41;7.60;99.90
29185;DHT22;16233;47.964;-3.842;2022-09-29T04:18:42;7.50;99.90
29185;DHT22;16233;47.964;-3.842;2022-09-29T04:20:43;7.50;99.90
29185;DHT22;16233;47.964;-3.842;2022-09-29T04:22:44;7.50;99.90
29185;DHT22;16233;47.964;-3.842;2022-09-29T04:24:45;7.40;99.90
29185;DHT22;16233;47.964;-3.842;2022-09-29T04:26:46;7.40;99.90
29185;DHT22;16233;47.964;-3.842;2022-09-29T04:28:47;7.40;99.90
29185;DHT22;16233;47.964;-3.842;2022-09-29T04:30:50;7.40;99.90
29185;DHT22;16233;47.964;-3.842;2022-09-29T04:32:51;7.30;99.90
29185;DHT22;16233;47.964;-3.842;2022-09-29T04:34:52;7.30;99.90
29185;DHT22;16233;47.964;-3.842;2022-09-29T04:36:53;7.30;99.90
29185;DHT22;16233;47.964;-3.842;2022-09-29T04:38:54;7.30;99.90
29185;DHT22;16233;47.964;-3.842;2022-09-29T04:40:57;7.20;99.90
29185;DHT22;16233;47.964;-3.842;2022-09-29T04:42:59;7.20;99.90
29185;DHT22;16233;47.964;-3.842;2022-09-29T04:45:02;7.20;99.90
29185;DHT22;16233;47.964;-3.842;2022-09-29T04:47:05;7.10;99.90
29185;DHT22;16233;47.964;-3.842;2022-09-29T04:49:06;7.10;99.90
29185;DHT22;16233;47.964;-3.842;2022-09-29T04:51:08;7.10;99.90
29185;DHT22;16233;47.964;-3.842;2022-09-29T04:53:10;7.00;99.90
29185;DHT22;16233;47.964;-3.842;2022-09-29T04:55:11;7.00;99.90
29185;DHT22;16233;47.964;-3.842;2022-09-29T04:57:12;7.00;99.90
29185;DHT22;16233;47.964;-3.842;2022-09-29T04:59:13;7.00;99.90
29185;DHT22;16233;47.964;-3.842;2022-09-29T05:01:16;7.00;99.90
29185;DHT22;16233;47.964;-3.842;2022-09-29T05:03:18;6.90;99.90
29185;DHT22;16233;47.964;-3.842;2022-09-29T05:05:19;6.90;99.90
29185;DHT22;16233;47.964;-3.842;2022-09-29T05:07:20;6.90;99.90
29185;DHT22;16233;47.964;-3.842;2022-09-29T05:09:21;6.90;99.90
29185;DHT22;16233;47.964;-3.842;2022-09-29T05:11:22;6.80;99.90
29185;DHT22;16233;47.964;-3.842;2022-09-29T05:13:23;6.80;99.90
29185;DHT22;16233;47.964;-3.842;2022-09-29T05:15:24;6.80;99.90
29185;DHT22;16233;47.964;-3.842;2022-09-29T05:17:25;6.80;99.90
29185;DHT22;16233;47.964;-3.842;2022-09-29T05:19:28;6.70;99.90
29185;DHT22;16233;47.964;-3.842;2022-09-29T05:21:29;6.70;99.90
29185;DHT22;16233;47.964;-3.842;2022-09-29T05:23:30;6.60;99.90
29185;DHT22;16233;47.964;-3.842;2022-09-29T05:25:31;6.60;99.90
29185;DHT22;16233;47.964;-3.842;2022-09-29T05:27:32;6.60;99.90
29185;DHT22;16233;47.964;-3.842;2022-09-29T05:29:33;6.60;99.90
29185;DHT22;16233;47.964;-3.842;2022-09-29T05:31:34;6.60;99.90
29185;DHT22;16233;47.964;-3.842;2022-09-29T05:33:35;6.60;99.90
29185;DHT22;16233;47.964;-3.842;2022-09-29T05:35:38;6.60;99.90
29185;DHT22;16233;47.964;-3.842;2022-09-29T05:37:39;6.50;99.90
29185;DHT22;16233;47.964;-3.842;2022-09-29T05:39:40;6.50;99.90
29185;DHT22;16233;47.964;-3.842;2022-09-29T05:41:41;6.50;99.90
29185;DHT22;16233;47.964;-3.842;2022-09-29T05:43:42;6.40;99.90
29185;DHT22;16233;47.964;-3.842;2022-09-29T05:45:43;6.50;99.90
29185;DHT22;16233;47.964;-3.842;2022-09-29T05:47:44;6.40;99.90
29185;DHT22;16233;47.964;-3.842;2022-09-29T05:49:45;6.40;99.90
29185;DHT22;16233;47.964;-3.842;2022-09-29T05:51:48;6.40;99.90
29185;DHT22;16233;47.964;-3.842;2022-09-29T05:53:49;6.40;99.90
29185;DHT22;16233;47.964;-3.842;2022-09-29T05:55:51;6.40;99.90
29185;DHT22;16233;47.964;-3.842;2022-09-29T05:57:52;6.40;99.90
29185;DHT22;16233;47.964;-3.842;2022-09-29T05:59:53;6.40;99.90
29185;DHT22;16233;47.964;-3.842;2022-09-29T06:01:54;6.40;99.90
29185;DHT22;16233;47.964;-3.842;2022-09-29T06:03:55;6.50;99.90
29185;DHT22;16233;47.964;-3.842;2022-09-29T06:05:56;6.50;99.90
29185;DHT22;16233;47.964;-3.842;2022-09-29T06:07:58;6.50;99.90
29185;DHT22;16233;47.964;-3.842;2022-09-29T06:09:59;6.60;99.90
29185;DHT22;16233;47.964;-3.842;2022-09-29T06:12:01;6.60;99.90
29185;DHT22;16233;47.964;-3.842;2022-09-29T06:14:02;6.60;99.90
29185;DHT22;16233;47.964;-3.842;2022-09-29T06:16:03;6.70;99.90
29185;DHT22;16233;47.964;-3.842;2022-09-29T06:18:04;6.70;99.90
29185;DHT22;16233;47.964;-3.842;2022-09-29T06:20:06;6.80;99.90
29185;DHT22;16233;47.964;-3.842;2022-09-29T06:22:08;6.90;99.90
29185;DHT22;16233;47.964;-3.842;2022-09-29T06:24:10;6.90;99.90
29185;DHT22;16233;47.964;-3.842;2022-09-29T06:26:12;6.90;99.90
29185;DHT22;16233;47.964;-3.842;2022-09-29T06:28:14;7.00;99.90
29185;DHT22;16233;47.964;-3.842;2022-09-29T06:30:15;7.10;99.90
29185;DHT22;16233;47.964;-3.842;2022-09-29T06:32:16;7.10;99.90
29185;DHT22;16233;47.964;-3.842;2022-09-29T06:34:17;7.10;99.90
29185;DHT22;16233;47.964;-3.842;2022-09-29T06:36:19;7.10;99.90
29185;DHT22;16233;47.964;-3.842;2022-09-29T06:38:21;7.20;99.90
29185;DHT22;16233;47.964;-3.842;2022-09-29T06:40:24;7.20;99.90
29185;DHT22;16233;47.964;-3.842;2022-09-29T06:42:25;7.20;99.90
29185;DHT22;16233;47.964;-3.842;2022-09-29T06:44:26;7.20;99.90
29185;DHT22;16233;47.964;-3.842;2022-09-29T06:46:28;7.20;99.90
29185;DHT22;16233;47.964;-3.842;2022-09-29T06:48:29;7.20;99.90
29185;DHT22;16233;47.964;-3.842;2022-09-29T06:50:30;7.30;99.90
29185;DHT22;16233;47.964;-3.842;2022-09-29T06:52:31;7.30;99.90
29185;DHT22;16233;47.964;-3.842;2022-09-29T06:54:32;7.30;99.90
29185;DHT22;16233;47.964;-3.842;2022-09-29T06:56:34;7.30;99.90
29185;DHT22;16233;47.964;-3.842;2022-09-29T06:58:35;7.40;99.90
29185;DHT22;16233;47.964;-3.842;2022-09-29T07:00:37;7.40;99.90
29185;DHT22;16233;47.964;-3.842;2022-09-29T07:02:38;7.50;99.90
29185;DHT22;16233;47.964;-3.842;2022-09-29T07:04:39;7.60;99.90
29185;DHT22;16233;47.964;-3.842;2022-09-29T07:06:40;7.60;99.90
29185;DHT22;16233;47.964;-3.842;2022-09-29T07:08:41;7.70;99.90
29185;DHT22;16233;47.964;-3.842;2022-09-29T07:10:42;7.70;99.90
29185;DHT22;16233;47.964;-3.842;2022-09-29T07:12:45;7.80;99.90
29185;DHT22;16233;47.964;-3.842;2022-09-29T07:14:47;7.90;99.90
29185;DHT22;16233;47.964;-3.842;2022-09-29T07:16:48;7.90;99.90
29185;DHT22;16233;47.964;-3.842;2022-09-29T07:18:49;8.00;99.90
29185;DHT22;16233;47.964;-3.842;2022-09-29T07:20:50;8.00;99.90
29185;DHT22;16233;47.964;-3.842;2022-09-29T07:22:51;8.10;99.90
29185;DHT22;16233;47.964;-3.842;2022-09-29T07:24:52;8.20;99.90
29185;DHT22;16233;47.964;-3.842;2022-09-29T07:26:53;8.30;99.90
29185;DHT22;16233;47.964;-3.842;2022-09-29T07:28:55;8.40;99.90
29185;DHT22;16233;47.964;-3.842;2022-09-29T07:31:01;8.50;99.90
29185;DHT22;16233;47.964;-3.842;2022-09-29T07:33:02;8.60;99.90
29185;DHT22;16233;47.964;-3.842;2022-09-29T07:35:03;8.70;99.90
29185;DHT22;16233;47.964;-3.842;2022-09-29T07:37:04;8.80;99.90
29185;DHT22;16233;47.964;-3.842;2022-09-29T07:39:06;8.90;99.90
29185;DHT22;16233;47.964;-3.842;2022-09-29T07:41:09;8.90;99.90
29185;DHT22;16233;47.964;-3.842;2022-09-29T07:43:10;9.10;99.90
29185;DHT22;16233;47.964;-3.842;2022-09-29T07:45:12;9.10;99.90
29185;DHT22;16233;47.964;-3.842;2022-09-29T07:47:14;9.30;99.90
29185;DHT22;16233;47.964;-3.842;2022-09-29T07:49:15;9.40;99.90
29185;DHT22;16233;47.964;-3.842;2022-09-29T07:51:17;9.50;99.90
29185;DHT22;16233;47.964;-3.842;2022-09-29T07:53:19;9.60;99.90
29185;DHT22;16233;47.964;-3.842;2022-09-29T07:55:20;9.70;99.90
29185;DHT22;16233;47.964;-3.842;2022-09-29T07:57:21;9.80;99.90
29185;DHT22;16233;47.964;-3.842;2022-09-29T07:59:22;9.90;99.90
29185;DHT22;16233;47.964;-3.842;2022-09-29T08:01:24;10.00;99.90
29185;DHT22;16233;47.964;-3.842;2022-09-29T08:03:26;10.10;99.90
29185;DHT22;16233;47.964;-3.842;2022-09-29T08:05:28;10.20;99.90
29185;DHT22;16233;47.964;-3.842;2022-09-29T08:07:29;10.30;99.90
29185;DHT22;16233;47.964;-3.842;2022-09-29T08:09:30;10.40;99.90
29185;DHT22;16233;47.964;-3.842;2022-09-29T08:11:32;10.50;99.90
29185;DHT22;16233;47.964;-3.842;2022-09-29T08:13:33;10.60;99.90
29185;DHT22;16233;47.964;-3.842;2022-09-29T08:15:35;10.70;99.90
29185;DHT22;16233;47.964;-3.842;2022-09-29T08:17:37;10.70;99.90
29185;DHT22;16233;47.964;-3.842;2022-09-29T08:19:39;10.80;99.90
29185;DHT22;16233;47.964;-3.842;2022-09-29T08:21:41;11.00;99.90
29185;DHT22;16233;47.964;-3.842;2022-09-29T08:23:43;11.00;99.90
29185;DHT22;16233;47.964;-3.842;2022-09-29T08:25:44;11.10;99.90
29185;DHT22;16233;47.964;-3.842;2022-09-29T08:27:45;11.20;99.90
29185;DHT22;16233;47.964;-3.842;2022-09-29T08:29:49;11.30;99.90
29185;DHT22;16233;47.964;-3.842;2022-09-29T08:31:50;11.50;99.90
29185;DHT22;16233;47.964;-3.842;2022-09-29T08:33:59;11.50;99.90
29185;DHT22;16233;47.964;-3.842;2022-09-29T08:36:03;11.70;99.90
29185;DHT22;16233;47.964;-3.842;2022-09-29T08:38:06;11.70;99.90
29185;DHT22;16233;47.964;-3.842;2022-09-29T08:40:08;11.90;99.90
29185;DHT22;16233;47.964;-3.842;2022-09-29T08:42:14;11.90;99.90
29185;DHT22;16233;47.964;-3.842;2022-09-29T08:44:20;12.00;99.90
29185;DHT22;16233;47.964;-3.842;2022-09-29T08:46:26;12.10;99.90
29185;DHT22;16233;47.964;-3.842;2022-09-29T08:48:37;12.20;99.90
29185;DHT22;16233;47.964;-3.842;2022-09-29T08:50:47;12.30;99.90
29185;DHT22;16233;47.964;-3.842;2022-09-29T08:52:53;12.40;99.90
29185;DHT22;16233;47.964;-3.842;2022-09-29T08:54:58;12.50;99.90
29185;DHT22;16233;47.964;-3.842;2022-09-29T08:57:01;12.60;99.90
29185;DHT22;16233;47.964;-3.842;2022-09-29T08:59:02;12.70;99.90
29185;DHT22;16233;47.964;-3.842;2022-09-29T09:01:17;12.80;99.90
29185;DHT22;16233;47.964;-3.842;2022-09-29T09:06:15;13.30;99.90
29185;DHT22;16233;47.964;-3.842;2022-09-29T09:08:27;13.60;99.90
29185;DHT22;16233;47.964;-3.842;2022-09-29T09:10:40;13.80;99.90
29185;DHT22;16233;47.964;-3.842;2022-09-29T09:13:01;14.00;99.90
29185;DHT22;16233;47.964;-3.842;2022-09-29T09:15:25;14.00;99.90
29185;DHT22;16233;47.964;-3.842;2022-09-29T09:17:44;14.00;99.90
29185;DHT22;16233;47.964;-3.842;2022-09-29T09:20:08;14.00;99.90
29185;DHT22;16233;47.964;-3.842;2022-09-29T09:22:20;14.00;99.90
29185;DHT22;16233;47.964;-3.842;2022-09-29T09:24:28;14.10;99.90
29185;DHT22;16233;47.964;-3.842;2022-09-29T09:26:34;14.20;99.90
29185;DHT22;16233;47.964;-3.842;2022-09-29T09:28:41;14.30;99.90
29185;DHT22;16233;47.964;-3.842;2022-09-29T09:30:47;14.60;99.90
29185;DHT22;16233;47.964;-3.842;2022-09-29T09:32:53;14.80;99.90
29185;DHT22;16233;47.964;-3.842;2022-09-29T09:34:58;15.10;99.90
29185;DHT22;16233;47.964;-3.842;2022-09-29T09:37:03;15.20;99.90
29185;DHT22;16233;47.964;-3.842;2022-09-29T09:39:12;15.20;99.90
29185;DHT22;16233;47.964;-3.842;2022-09-29T09:41:19;15.30;99.90
29185;DHT22;16233;47.964;-3.842;2022-09-29T09:43:25;15.30;99.90
29185;DHT22;16233;47.964;-3.842;2022-09-29T09:45:30;15.30;99.90
29185;DHT22;16233;47.964;-3.842;2022-09-29T09:47:35;15.00;99.90
29185;DHT22;16233;47.964;-3.842;2022-09-29T09:49:41;14.80;99.90
29185;DHT22;16233;47.964;-3.842;2022-09-29T09:51:48;14.60;99.90
29185;DHT22;16233;47.964;-3.842;2022-09-29T09:53:51;14.40;99.90
29185;DHT22;16233;47.964;-3.842;2022-09-29T09:56:06;14.20;99.90
29185;DHT22;16233;47.964;-3.842;2022-09-29T09:58:30;14.20;99.90
29185;DHT22;16233;47.964;-3.842;2022-09-29T10:00:36;14.20;99.90
29185;DHT22;16233;47.964;-3.842;2022-09-29T10:02:42;14.30;99.90
29185;DHT22;16233;47.964;-3.842;2022-09-29T10:04:45;14.30;99.90
29185;DHT22;16233;47.964;-3.842;2022-09-29T10:06:46;14.30;99.90
29185;DHT22;16233;47.964;-3.842;2022-09-29T10:08:47;14.40;99.90
29185;DHT22;16233;47.964;-3.842;2022-09-29T10:10:49;14.60;99.90
29185;DHT22;16233;47.964;-3.842;2022-09-29T10:13:04;14.80;99.90
29185;DHT22;16233;47.964;-3.842;2022-09-29T10:15:16;15.00;99.90
29185;DHT22;16233;47.964;-3.842;2022-09-29T10:17:22;15.20;99.90
29185;DHT22;16233;47.964;-3.842;2022-09-29T10:19:53;15.30;99.90
29185;DHT22;16233;47.964;-3.842;2022-09-29T10:22:11;15.20;99.90
29185;DHT22;16233;47.964;-3.842;2022-09-29T10:24:27;15.20;99.90
29185;DHT22;16233;47.964;-3.842;2022-09-29T10:26:32;15.10;99.90
29185;DHT22;16233;47.964;-3.842;2022-09-29T10:28:42;15.30;99.90
29185;DHT22;16233;47.964;-3.842;2022-09-29T10:30:44;15.50;99.90
29185;DHT22;16233;47.964;-3.842;2022-09-29T10:32:45;15.70;99.90
29185;DHT22;16233;47.964;-3.842;2022-09-29T10:34:49;16.00;99.90
29185;DHT22;16233;47.964;-3.842;2022-09-29T10:36:52;16.20;99.90
29185;DHT22;16233;47.964;-3.842;2022-09-29T10:38:54;16.50;99.90
29185;DHT22;16233;47.964;-3.842;2022-09-29T10:40:56;16.80;99.90
29185;DHT22;16233;47.964;-3.842;2022-09-29T10:42:58;17.00;99.90
29185;DHT22;16233;47.964;-3.842;2022-09-29T10:45:19;17.20;99.90
29185;DHT22;16233;47.964;-3.842;2022-09-29T10:47:21;17.20;98.80
29185;DHT22;16233;47.964;-3.842;2022-09-29T10:49:24;17.20;99.90
29185;DHT22;16233;47.964;-3.842;2022-09-29T10:51:26;17.20;99.90
29185;DHT22;16233;47.964;-3.842;2022-09-29T10:53:33;17.20;99.90
29185;DHT22;16233;47.964;-3.842;2022-09-29T10:55:35;17.30;99.90
29185;DHT22;16233;47.964;-3.842;2022-09-29T10:57:47;17.30;99.40
29185;DHT22;16233;47.964;-3.842;2022-09-29T10:59:50;17.50;99.90
29185;DHT22;16233;47.964;-3.842;2022-09-29T11:01:55;17.60;99.90
29185;DHT22;16233;47.964;-3.842;2022-09-29T11:04:00;17.70;97.30
29185;DHT22;16233;47.964;-3.842;2022-09-29T11:06:05;18.00;97.30
29185;DHT22;16233;47.964;-3.842;2022-09-29T11:08:10;18.20;94.00
29185;DHT22;16233;47.964;-3.842;2022-09-29T11:10:26;18.20;51.50
29185;DHT22;16233;47.964;-3.842;2022-09-29T11:12:31;18.30;33.70
29185;DHT22;16233;47.964;-3.842;2022-09-29T11:14:41;18.50;34.00
29185;DHT22;16233;47.964;-3.842;2022-09-29T11:19:09;18.90;14.90
29185;DHT22;16233;47.964;-3.842;2022-09-29T11:21:41;19.10;1.00
29185;DHT22;16233;47.964;-3.842;2022-09-29T11:23:47;19.00;1.00
29185;DHT22;16233;47.964;-3.842;2022-09-29T11:26:08;18.90;1.00
29185;DHT22;16233;47.964;-3.842;2022-09-29T11:28:32;18.70;1.00
29185;DHT22;16233;47.964;-3.842;2022-09-29T11:30:43;18.60;1.00
29185;DHT22;16233;47.964;-3.842;2022-09-29T11:32:51;18.40;1.00
29185;DHT22;16233;47.964;-3.842;2022-09-29T11:35:22;18.00;1.00
29185;DHT22;16233;47.964;-3.842;2022-09-29T11:37:38;17.60;1.00
29185;DHT22;16233;47.964;-3.842;2022-09-29T11:39:49;17.40;1.00
29185;DHT22;16233;47.964;-3.842;2022-09-29T11:42:03;17.20;1.00
29185;DHT22;16233;47.964;-3.842;2022-09-29T11:44:17;17.20;12.30
29185;DHT22;16233;47.964;-3.842;2022-09-29T11:46:41;17.30;8.50
29185;DHT22;16233;47.964;-3.842;2022-09-29T11:51:31;17.10;8.70
29185;DHT22;16233;47.964;-3.842;2022-09-29T11:56:15;16.70;17.40
29185;DHT22;16233;47.964;-3.842;2022-09-29T11:58:31;16.40;26.40
29185;DHT22;16233;47.964;-3.842;2022-09-29T12:00:50;16.20;31.10
29185;DHT22;16233;47.964;-3.842;2022-09-29T12:03:10;16.30;38.30
29185;DHT22;16233;47.964;-3.842;2022-09-29T12:05:17;16.40;44.80
29185;DHT22;16233;47.964;-3.842;2022-09-29T12:07:30;16.60;42.90
29185;DHT22;16233;47.964;-3.842;2022-09-29T12:09:52;16.70;42.60
29185;DHT22;16233;47.964;-3.842;2022-09-29T12:12:02;16.80;42.90
29185;DHT22;16233;47.964;-3.842;2022-09-29T12:14:09;17.10;55.50
29185;DHT22;16233;47.964;-3.842;2022-09-29T12:16:14;17.40;45.80
29185;DHT22;16233;47.964;-3.842;2022-09-29T12:18:18;17.60;43.70
29185;DHT22;16233;47.964;-3.842;2022-09-29T12:20:23;17.60;37.30
29185;DHT22;16233;47.964;-3.842;2022-09-29T12:22:26;17.60;32.30
29185;DHT22;16233;47.964;-3.842;2022-09-29T12:24:33;17.50;30.20
29185;DHT22;16233;47.964;-3.842;2022-09-29T12:26:35;17.40;31.80
29185;DHT22;16233;47.964;-3.842;2022-09-29T12:28:42;17.40;35.60
29185;DHT22;16233;47.964;-3.842;2022-09-29T12:30:46;17.50;41.90
29185;DHT22;16233;47.964;-3.842;2022-09-29T12:32:55;17.60;38.60
29185;DHT22;16233;47.964;-3.842;2022-09-29T12:35:01;17.60;40.60
29185;DHT22;16233;47.964;-3.842;2022-09-29T12:37:09;17.70;39.30
29185;DHT22;16233;47.964;-3.842;2022-09-29T12:39:28;17.90;41.70
29185;DHT22;16233;47.964;-3.842;2022-09-29T12:41:35;18.00;33.60
29185;DHT22;16233;47.964;-3.842;2022-09-29T12:43:42;17.80;28.90
29185;DHT22;16233;47.964;-3.842;2022-09-29T12:45:53;17.60;28.00
29185;DHT22;16233;47.964;-3.842;2022-09-29T12:48:04;17.30;27.10
29185;DHT22;16233;47.964;-3.842;2022-09-29T12:50:12;17.00;35.50
29185;DHT22;16233;47.964;-3.842;2022-09-29T12:52:27;16.60;44.30
29185;DHT22;16233;47.964;-3.842;2022-09-29T12:54:33;16.30;43.10
29185;DHT22;16233;47.964;-3.842;2022-09-29T12:56:38;16.10;46.80
29185;DHT22;16233;47.964;-3.842;2022-09-29T12:58:44;15.90;62.60
29185;DHT22;16233;47.964;-3.842;2022-09-29T13:00:49;15.70;74.00
29185;DHT22;16233;47.964;-3.842;2022-09-29T13:05:38;15.50;90.30
29185;DHT22;16233;47.964;-3.842;2022-09-29T13:11:00;16.20;99.90
29185;DHT22;16233;47.964;-3.842;2022-09-29T13:13:44;16.40;99.90
29185;DHT22;16233;47.964;-3.842;2022-09-29T13:16:01;16.50;99.90
29185;DHT22;16233;47.964;-3.842;2022-09-29T13:18:23;16.30;99.90
29185;DHT22;16233;47.964;-3.842;2022-09-29T13:20:46;16.30;99.90
29185;DHT22;16233;47.964;-3.842;2022-09-29T13:23:25;16.40;99.90
29185;DHT22;16233;47.964;-3.842;2022-09-29T13:25:33;16.40;99.90
29185;DHT22;16233;47.964;-3.842;2022-09-29T13:27:39;16.30;99.90
29185;DHT22;16233;47.964;-3.842;2022-09-29T13:29:44;16.40;99.90